Pagina principală
METAR-TAF:

METAR-TAF

Aeroporturi :

Demopolis, Alabama, Statele Unite ale Americii

Latitudine: 32-27-50N, longitudine: 087-57-15W, elevație: 34 m

Observații meteo curente

Raportul a fost făcut în urmă cu 24 de minute, la 22:35 UTC
Vânt 3 kt de la Sud/Sud-vest
Temperatură 35°C
Umiditate 32%
Presiune 1015 hPa
Vizibilitate: 16.1 km
Cer senin

METAR: KDYA 222235Z AUTO 20003KT 10SM CLR 35/16 A2997 RMK AO2 T03500163

Ora: 17:59 (22:59 UTC)


TAF: lipsă

Observații și prognoze meteo pentru peste 4.000 de aeroporturi (rapoarte METAR și TAF).

Stațiile disponibile sunt reprezentate pe hartă prin puncte galbene și roșii.

Țineți indicatorul mouse-ului pe punctul dorit pentru a vedea denumirea stației.

Apoi, faceți clic pentru a vedea observațiile și prognozele meteorologice.

Pentru a schimba harta: Pentru mărire, faceți clic pe butoanele verzi cu cruce neagră; pentru micșorare, pe butonul verde cu o liniuță; pentru hărți învecinate, pe săgețile verzi.


METAR-TAF: